createdAt,value
2022-11-26T00:00:07.698Z,0.00
2022-11-26T00:01:07.726Z,0.00
2022-11-26T00:02:07.789Z,0.00
2022-11-26T00:03:07.883Z,0.00
2022-11-26T00:04:07.638Z,0.00
2022-11-26T00:05:07.632Z,0.00
2022-11-26T00:06:07.620Z,0.00
2022-11-26T00:07:07.640Z,0.00
2022-11-26T00:08:07.602Z,0.00
2022-11-26T00:09:07.656Z,0.00
2022-11-26T00:10:07.583Z,0.00
2022-11-26T00:11:07.561Z,0.00
2022-11-26T00:12:07.575Z,0.00
2022-11-26T00:13:07.532Z,0.00
2022-11-26T00:14:07.521Z,0.00
2022-11-26T00:15:07.513Z,0.00
2022-11-26T00:16:07.631Z,0.00
2022-11-26T00:17:07.521Z,0.00
2022-11-26T00:18:07.634Z,0.00
2022-11-26T00:19:07.477Z,0.00
2022-11-26T00:20:07.453Z,0.00
2022-11-26T00:21:07.443Z,0.00
2022-11-26T00:22:07.434Z,0.00
2022-11-26T00:23:07.513Z,0.00
2022-11-26T00:24:07.501Z,0.00
2022-11-26T00:25:07.491Z,0.00
2022-11-26T00:26:07.396Z,0.00
2022-11-26T00:27:07.383Z,0.00
2022-11-26T00:28:07.409Z,0.00
2022-11-26T00:29:07.374Z,0.00
2022-11-26T00:30:07.370Z,0.00
2022-11-26T00:31:07.335Z,0.00
2022-11-26T00:32:07.372Z,0.00
2022-11-26T00:33:07.333Z,0.00
2022-11-26T00:34:07.344Z,0.00
2022-11-26T00:35:07.864Z,0.00
2022-11-26T00:36:07.319Z,0.00
2022-11-26T00:37:07.355Z,0.00
2022-11-26T00:38:07.255Z,0.00
2022-11-26T00:39:07.319Z,0.00
2022-11-26T00:40:07.232Z,0.00
2022-11-26T00:41:07.250Z,0.00
2022-11-26T00:42:07.215Z,0.00
2022-11-26T00:43:07.203Z,0.00
2022-11-26T00:44:07.195Z,0.00
2022-11-26T00:45:07.228Z,0.00
2022-11-26T00:46:07.240Z,0.00
2022-11-26T00:47:07.187Z,0.00
2022-11-26T00:48:07.151Z,0.00
2022-11-26T00:49:07.165Z,0.00
2022-11-26T00:50:07.120Z,0.00
2022-11-26T00:51:07.118Z,0.00
2022-11-26T00:52:07.096Z,0.00
2022-11-26T00:53:07.151Z,0.00
2022-11-26T00:54:07.804Z,0.00
2022-11-26T00:55:07.077Z,0.00
2022-11-26T00:56:07.083Z,0.00
2022-11-26T00:57:07.046Z,0.00
2022-11-26T00:58:07.036Z,0.00
2022-11-26T00:59:07.055Z,0.00
2022-11-26T01:00:07.020Z,0.00
2022-11-26T01:01:07.044Z,0.00
2022-11-26T01:02:07.124Z,0.00
2022-11-26T01:03:07.075Z,0.00
2022-11-26T01:04:07.353Z,0.00
2022-11-26T01:05:07.034Z,0.00
2022-11-26T01:06:06.949Z,0.00
2022-11-26T01:07:07.119Z,0.00
2022-11-26T01:08:06.929Z,0.00
2022-11-26T01:09:06.911Z,0.00
2022-11-26T01:10:07.087Z,0.00
2022-11-26T01:11:06.870Z,0.00
2022-11-26T01:12:06.880Z,0.00
2022-11-26T01:13:06.895Z,0.00
2022-11-26T01:14:06.848Z,0.00
2022-11-26T01:15:06.863Z,0.00
2022-11-26T01:16:06.940Z,0.00
2022-11-26T01:17:06.897Z,0.00
2022-11-26T01:18:06.807Z,0.00
2022-11-26T01:19:06.790Z,0.00
2022-11-26T01:20:06.769Z,0.00
2022-11-26T01:21:06.765Z,0.00
2022-11-26T01:22:06.782Z,0.00
2022-11-26T01:23:07.480Z,0.00
2022-11-26T01:24:06.740Z,0.00
2022-11-26T01:25:06.755Z,0.00
2022-11-26T01:26:06.837Z,0.00
2022-11-26T01:27:06.721Z,0.00
2022-11-26T01:28:06.699Z,0.00
2022-11-26T01:29:06.686Z,0.00
2022-11-26T01:30:06.689Z,0.00
2022-11-26T01:31:06.707Z,0.00
2022-11-26T01:32:06.705Z,0.00
2022-11-26T01:33:06.919Z,0.00
2022-11-26T01:34:06.622Z,0.00
2022-11-26T01:35:06.601Z,0.00
2022-11-26T01:36:06.605Z,0.00
2022-11-26T01:37:06.611Z,0.00
2022-11-26T01:38:06.636Z,0.00
2022-11-26T01:39:06.591Z,0.00
2022-11-26T01:40:06.598Z,0.00
2022-11-26T01:41:06.540Z,0.00
2022-11-26T01:42:06.544Z,0.00
2022-11-26T01:43:06.532Z,0.00
2022-11-26T01:44:07.352Z,0.00
2022-11-26T01:45:06.548Z,0.00
2022-11-26T01:46:06.631Z,0.00
2022-11-26T01:47:06.492Z,0.00
2022-11-26T01:48:06.466Z,0.00
2022-11-26T01:49:06.453Z,0.00
2022-11-26T01:50:06.457Z,0.00
2022-11-26T01:51:06.519Z,0.00
2022-11-26T01:52:06.454Z,0.00
2022-11-26T01:53:06.432Z,0.00
2022-11-26T01:54:06.465Z,0.00
2022-11-26T01:55:06.383Z,0.00
2022-11-26T01:56:06.377Z,0.00
2022-11-26T01:57:06.464Z,0.00
2022-11-26T01:58:06.373Z,0.00
2022-11-26T01:59:06.344Z,0.00
2022-11-26T02:00:06.374Z,0.00
2022-11-26T02:01:06.471Z,0.00
2022-11-26T02:02:06.331Z,0.00
2022-11-26T02:03:06.383Z,0.00
2022-11-26T02:04:06.295Z,0.00
2022-11-26T02:05:06.276Z,0.00
2022-11-26T02:06:06.264Z,0.00
2022-11-26T02:07:06.299Z,0.00
2022-11-26T02:08:06.246Z,0.00
2022-11-26T02:09:06.249Z,0.00
2022-11-26T02:10:06.217Z,0.00
2022-11-26T02:11:06.229Z,0.00
2022-11-26T02:12:06.206Z,0.00
2022-11-26T02:13:06.185Z,0.00
2022-11-26T02:14:06.167Z,0.00
2022-11-26T02:15:06.186Z,0.00
2022-11-26T02:16:06.216Z,0.00
2022-11-26T02:17:06.144Z,0.00
2022-11-26T02:18:06.161Z,0.00
2022-11-26T02:19:06.120Z,0.00
2022-11-26T02:20:06.106Z,0.00
2022-11-26T02:21:06.114Z,0.00
2022-11-26T02:22:06.097Z,0.00
2022-11-26T02:23:06.065Z,0.00
2022-11-26T02:24:06.066Z,0.00
2022-11-26T02:25:06.046Z,0.00
2022-11-26T02:26:06.054Z,0.00
2022-11-26T02:27:06.124Z,0.00
2022-11-26T02:28:06.017Z,0.00
2022-11-26T02:29:06.065Z,0.00
2022-11-26T02:30:06.012Z,0.00
2022-11-26T02:31:06.015Z,0.00
2022-11-26T02:32:06.010Z,0.00
2022-11-26T02:33:05.992Z,0.00
2022-11-26T02:34:05.962Z,0.00
2022-11-26T02:35:05.934Z,0.00
2022-11-26T02:36:05.928Z,0.00
2022-11-26T02:37:05.907Z,0.00
2022-11-26T02:38:05.897Z,0.00
2022-11-26T02:39:05.917Z,0.00
2022-11-26T02:40:05.880Z,0.00
2022-11-26T02:41:05.867Z,0.00
2022-11-26T02:42:05.870Z,0.00
2022-11-26T02:43:05.853Z,0.00
2022-11-26T02:44:05.841Z,0.00
2022-11-26T02:45:05.848Z,0.00
2022-11-26T02:46:05.925Z,0.00
2022-11-26T02:47:05.814Z,0.00
2022-11-26T02:48:05.809Z,0.00
2022-11-26T02:49:05.793Z,0.00
2022-11-26T02:50:05.794Z,0.00
2022-11-26T02:51:05.820Z,0.00
2022-11-26T02:52:05.749Z,0.00
2022-11-26T02:53:05.739Z,0.00
2022-11-26T02:54:05.752Z,0.00
2022-11-26T02:55:05.731Z,0.00
2022-11-26T02:56:05.718Z,0.00
2022-11-26T02:57:06.187Z,0.00
2022-11-26T02:58:05.678Z,0.00
2022-11-26T02:59:05.676Z,0.00
2022-11-26T03:00:05.654Z,0.00
2022-11-26T03:01:05.729Z,0.00
2022-11-26T03:02:05.631Z,0.00
2022-11-26T03:03:05.679Z,0.00
2022-11-26T03:04:05.763Z,0.00
2022-11-26T03:05:05.599Z,0.00
2022-11-26T03:06:05.683Z,0.00
2022-11-26T03:07:05.602Z,0.00
2022-11-26T03:08:05.581Z,0.00
2022-11-26T03:09:05.601Z,0.00
2022-11-26T03:10:05.546Z,0.00
2022-11-26T03:11:05.530Z,0.00
2022-11-26T03:12:05.584Z,0.00
2022-11-26T03:13:05.521Z,0.00
2022-11-26T03:14:05.492Z,0.00
2022-11-26T03:15:05.512Z,0.00
2022-11-26T03:16:05.531Z,0.00
2022-11-26T03:17:05.473Z,0.00
2022-11-26T03:18:05.447Z,0.00
2022-11-26T03:19:05.475Z,0.00
2022-11-26T03:20:05.431Z,0.00
2022-11-26T03:21:05.434Z,0.00
2022-11-26T03:22:05.402Z,0.00
2022-11-26T03:23:05.406Z,0.00
2022-11-26T03:24:05.375Z,0.00
2022-11-26T03:25:05.363Z,0.00
2022-11-26T03:26:05.354Z,0.00
2022-11-26T03:27:05.362Z,0.00
2022-11-26T03:28:05.349Z,0.00
2022-11-26T03:29:05.329Z,0.00
2022-11-26T03:30:05.379Z,0.00
2022-11-26T03:31:05.305Z,0.00
2022-11-26T03:32:05.316Z,0.00
2022-11-26T03:33:05.572Z,0.00
2022-11-26T03:34:05.264Z,0.00
2022-11-26T03:35:05.272Z,0.00
2022-11-26T03:36:05.256Z,0.00
2022-11-26T03:37:05.235Z,0.00
2022-11-26T03:38:05.213Z,0.00
2022-11-26T03:39:05.225Z,0.00
2022-11-26T03:40:05.209Z,0.00
2022-11-26T03:41:05.199Z,0.00
2022-11-26T03:42:05.232Z,0.00
2022-11-26T03:43:05.178Z,0.00
2022-11-26T03:44:05.177Z,0.00
2022-11-26T03:45:05.195Z,0.00
2022-11-26T03:46:05.217Z,0.00
2022-11-26T03:47:05.136Z,0.00
2022-11-26T03:48:05.105Z,0.00
2022-11-26T03:49:05.110Z,0.00
2022-11-26T03:50:05.092Z,0.00
2022-11-26T03:51:05.176Z,0.00
2022-11-26T03:52:05.109Z,0.00
2022-11-26T03:53:05.056Z,0.00
2022-11-26T03:54:05.046Z,0.00
2022-11-26T03:55:05.029Z,0.00
2022-11-26T03:56:05.017Z,0.00
2022-11-26T03:57:05.046Z,0.00
2022-11-26T03:58:05.058Z,0.00
2022-11-26T03:59:04.977Z,0.00
2022-11-26T04:00:04.980Z,0.00
2022-11-26T04:01:05.602Z,0.00
2022-11-26T04:02:04.956Z,0.00
2022-11-26T04:03:05.068Z,0.00
2022-11-26T04:04:04.928Z,0.00
2022-11-26T04:05:04.908Z,0.00
2022-11-26T04:06:04.908Z,0.00
2022-11-26T04:07:04.887Z,0.00
2022-11-26T04:08:04.890Z,0.00
2022-11-26T04:09:04.885Z,0.00
2022-11-26T04:10:04.871Z,0.00
2022-11-26T04:11:04.860Z,0.00
2022-11-26T04:12:04.870Z,0.00
2022-11-26T04:13:04.837Z,0.00
2022-11-26T04:14:04.839Z,0.00
2022-11-26T04:15:04.819Z,0.00
2022-11-26T04:16:04.798Z,0.00
2022-11-26T04:17:04.794Z,0.00
2022-11-26T04:18:04.801Z,0.00
2022-11-26T04:19:04.763Z,0.00
2022-11-26T04:20:04.759Z,0.00
2022-11-26T04:21:04.781Z,0.00
2022-11-26T04:22:04.950Z,0.00
2022-11-26T04:23:04.751Z,0.00
2022-11-26T04:24:04.709Z,0.00
2022-11-26T04:25:04.717Z,0.00
2022-11-26T04:26:04.690Z,0.00
2022-11-26T04:27:04.721Z,0.00
2022-11-26T04:28:04.669Z,0.00
2022-11-26T04:29:04.640Z,0.00
2022-11-26T04:30:04.650Z,0.00
2022-11-26T04:31:04.664Z,0.00
2022-11-26T04:32:04.686Z,0.00
2022-11-26T04:33:04.623Z,0.00
2022-11-26T04:34:04.600Z,0.00
2022-11-26T04:35:04.579Z,0.00
2022-11-26T04:36:04.583Z,0.00
2022-11-26T04:37:04.581Z,0.00
2022-11-26T04:38:04.602Z,0.00
2022-11-26T04:39:04.563Z,0.00
2022-11-26T04:40:04.512Z,0.00
2022-11-26T04:41:04.504Z,0.00
2022-11-26T04:42:04.534Z,0.00
2022-11-26T04:43:04.472Z,0.00
2022-11-26T04:44:04.463Z,0.00
2022-11-26T04:45:04.471Z,0.00
2022-11-26T04:46:04.542Z,0.00
2022-11-26T04:47:04.429Z,0.00
2022-11-26T04:48:04.422Z,0.00
2022-11-26T04:49:04.471Z,0.00
2022-11-26T04:50:04.406Z,0.00
2022-11-26T04:51:04.413Z,0.00
2022-11-26T04:52:04.383Z,0.00
2022-11-26T04:53:04.360Z,0.00
2022-11-26T04:54:08.621Z,0.00
2022-11-26T04:55:05.346Z,0.00
2022-11-26T04:56:04.322Z,0.00
2022-11-26T04:57:04.347Z,0.00
2022-11-26T04:58:04.293Z,0.00
2022-11-26T04:59:04.294Z,0.00
2022-11-26T05:00:04.320Z,0.00
2022-11-26T05:01:04.311Z,0.00
2022-11-26T05:02:04.263Z,0.00
2022-11-26T05:03:04.425Z,0.00
2022-11-26T05:04:04.283Z,0.00
2022-11-26T05:05:04.364Z,0.00
2022-11-26T05:06:04.213Z,0.00
2022-11-26T05:07:04.205Z,0.00
2022-11-26T05:08:04.243Z,0.00
2022-11-26T05:09:04.186Z,0.00
2022-11-26T05:10:04.229Z,0.00
2022-11-26T05:11:04.162Z,0.00
2022-11-26T05:12:04.171Z,0.00
2022-11-26T05:13:04.636Z,0.00
2022-11-26T05:14:04.153Z,0.00
2022-11-26T05:15:04.114Z,0.00
2022-11-26T05:16:04.203Z,0.00
2022-11-26T05:17:04.093Z,0.00
2022-11-26T05:18:04.092Z,0.00
2022-11-26T05:19:04.161Z,0.00
2022-11-26T05:20:04.059Z,0.00
2022-11-26T05:21:04.068Z,0.00
2022-11-26T05:22:04.030Z,0.00
2022-11-26T05:23:04.120Z,0.00
2022-11-26T05:24:04.006Z,0.00
2022-11-26T05:25:04.009Z,0.00
2022-11-26T05:26:03.987Z,0.00
2022-11-26T05:27:03.993Z,0.00
2022-11-26T05:28:03.956Z,0.00
2022-11-26T05:29:03.955Z,0.00
2022-11-26T05:30:03.991Z,0.00
2022-11-26T05:31:04.007Z,0.00
2022-11-26T05:32:03.947Z,0.00
2022-11-26T05:33:03.901Z,0.00
2022-11-26T05:34:03.887Z,0.00
2022-11-26T05:35:04.145Z,0.00
2022-11-26T05:36:03.877Z,0.00
2022-11-26T05:37:03.865Z,0.00
2022-11-26T05:38:03.838Z,0.00
2022-11-26T05:39:03.832Z,0.00
2022-11-26T05:40:03.816Z,0.00
2022-11-26T05:41:03.848Z,0.00
2022-11-26T05:42:08.975Z,0.00
2022-11-26T05:43:04.800Z,0.00
2022-11-26T05:44:03.817Z,0.00
2022-11-26T05:45:03.822Z,0.00
2022-11-26T05:46:03.821Z,0.00
2022-11-26T05:47:03.758Z,0.00
2022-11-26T05:48:03.722Z,0.00
2022-11-26T05:49:03.713Z,0.00
2022-11-26T05:50:03.709Z,0.00
2022-11-26T05:51:03.698Z,0.00
2022-11-26T05:52:03.721Z,0.00
2022-11-26T05:53:03.683Z,0.00
2022-11-26T05:54:03.664Z,0.00
2022-11-26T05:55:03.651Z,0.00
2022-11-26T05:56:03.649Z,0.00
2022-11-26T05:57:03.665Z,0.00
2022-11-26T05:58:03.640Z,0.00
2022-11-26T05:59:03.755Z,0.00
2022-11-26T06:00:03.702Z,0.00
2022-11-26T06:01:03.580Z,0.00
2022-11-26T06:02:03.696Z,0.00
2022-11-26T06:03:03.682Z,0.00
2022-11-26T06:04:03.555Z,0.00
2022-11-26T06:05:03.531Z,0.00
2022-11-26T06:06:03.610Z,0.00
2022-11-26T06:07:03.508Z,0.00
2022-11-26T06:08:03.926Z,0.00
2022-11-26T06:09:03.548Z,0.00
2022-11-26T06:10:03.692Z,0.00
2022-11-26T06:11:03.468Z,0.00
2022-11-26T06:12:03.478Z,0.00
2022-11-26T06:13:03.535Z,0.00
2022-11-26T06:14:03.461Z,0.00
2022-11-26T06:15:03.424Z,0.00
2022-11-26T06:16:03.522Z,0.00
2022-11-26T06:17:03.439Z,0.00
2022-11-26T06:18:03.391Z,0.00
2022-11-26T06:19:03.381Z,0.00
2022-11-26T06:20:03.472Z,0.00
2022-11-26T06:21:03.398Z,0.00
2022-11-26T06:22:03.331Z,0.00
2022-11-26T06:23:03.319Z,0.00
2022-11-26T06:24:03.324Z,0.00
2022-11-26T06:25:03.349Z,0.00
2022-11-26T06:26:03.292Z,0.00
2022-11-26T06:27:03.303Z,0.00
2022-11-26T06:28:03.281Z,0.00
2022-11-26T06:29:03.260Z,0.00
2022-11-26T06:30:03.335Z,0.00
2022-11-26T06:31:03.509Z,0.00
2022-11-26T06:32:03.226Z,0.00
2022-11-26T06:33:03.210Z,0.00
2022-11-26T06:34:03.221Z,0.00
2022-11-26T06:35:03.195Z,0.00
2022-11-26T06:36:03.200Z,0.00
2022-11-26T06:37:03.190Z,0.00
2022-11-26T06:38:03.174Z,0.00
2022-11-26T06:39:03.190Z,0.00
2022-11-26T06:40:03.165Z,0.00
2022-11-26T06:41:04.017Z,0.00
2022-11-26T06:42:03.191Z,0.00
2022-11-26T06:43:03.114Z,0.00
2022-11-26T06:44:03.102Z,0.00
2022-11-26T06:45:03.102Z,0.00
2022-11-26T06:46:03.204Z,0.00
2022-11-26T06:47:03.084Z,0.00
2022-11-26T06:48:03.066Z,0.00
2022-11-26T06:49:03.051Z,0.00
2022-11-26T06:50:07.801Z,0.00
2022-11-26T06:51:04.054Z,0.00
2022-11-26T06:52:03.015Z,0.00
2022-11-26T06:53:03.025Z,0.00
2022-11-26T06:54:02.982Z,0.00
2022-11-26T06:55:02.989Z,0.00
2022-11-26T06:56:03.004Z,0.00
2022-11-26T06:57:02.963Z,0.00
2022-11-26T06:58:02.991Z,0.00
2022-11-26T06:59:02.957Z,0.00
2022-11-26T07:00:02.967Z,0.00
2022-11-26T07:01:02.965Z,5.62
2022-11-26T07:02:02.989Z,5.62
2022-11-26T07:03:02.902Z,5.62
2022-11-26T07:04:02.943Z,5.62
2022-11-26T07:05:02.874Z,5.62
2022-11-26T07:06:02.875Z,5.62
2022-11-26T07:07:03.148Z,5.62
2022-11-26T07:08:02.850Z,5.62
2022-11-26T07:09:02.897Z,5.62
2022-11-26T07:10:03.036Z,5.62
2022-11-26T07:11:02.793Z,5.62
2022-11-26T07:12:02.827Z,5.62
2022-11-26T07:13:02.776Z,11.25
2022-11-26T07:14:02.895Z,11.25
2022-11-26T07:15:02.783Z,11.25
2022-11-26T07:16:02.861Z,11.25
2022-11-26T07:17:02.823Z,11.25
2022-11-26T07:18:02.759Z,11.25
2022-11-26T07:19:03.494Z,11.25
2022-11-26T07:20:02.825Z,11.25
2022-11-26T07:21:02.704Z,11.25
2022-11-26T07:22:02.783Z,11.25
2022-11-26T07:23:02.666Z,11.25
2022-11-26T07:24:02.748Z,11.25
2022-11-26T07:25:02.860Z,11.25
2022-11-26T07:26:02.663Z,16.88
2022-11-26T07:27:02.652Z,16.88
2022-11-26T07:28:02.745Z,16.88
2022-11-26T07:29:02.623Z,16.88
2022-11-26T07:30:02.595Z,16.88
2022-11-26T07:31:02.713Z,16.88
2022-11-26T07:32:02.731Z,16.88
2022-11-26T07:33:02.611Z,16.88
2022-11-26T07:34:02.696Z,16.88
2022-11-26T07:35:02.525Z,22.50
2022-11-26T07:36:02.618Z,22.50
2022-11-26T07:37:02.624Z,22.50
2022-11-26T07:38:02.900Z,22.50
2022-11-26T07:39:02.647Z,22.50
2022-11-26T07:40:02.498Z,22.50
2022-11-26T07:41:02.544Z,22.50
2022-11-26T07:42:02.456Z,22.50
2022-11-26T07:43:02.457Z,28.12
2022-11-26T07:44:02.477Z,28.12
2022-11-26T07:45:02.637Z,28.12
2022-11-26T07:46:02.532Z,28.12
2022-11-26T07:47:02.413Z,28.12
2022-11-26T07:48:02.388Z,28.12
2022-11-26T07:49:02.475Z,28.12
2022-11-26T07:50:02.437Z,28.12
2022-11-26T07:51:02.356Z,33.75
2022-11-26T07:52:02.396Z,33.75
2022-11-26T07:53:02.370Z,33.75
2022-11-26T07:54:02.326Z,33.75
2022-11-26T07:55:02.360Z,33.75
2022-11-26T07:56:02.315Z,33.75
2022-11-26T07:57:02.324Z,33.75
2022-11-26T07:58:02.337Z,33.75
2022-11-26T07:59:02.296Z,39.38
2022-11-26T08:00:02.360Z,39.38
2022-11-26T08:01:02.304Z,39.38
2022-11-26T08:02:02.294Z,39.38
2022-11-26T08:03:02.325Z,45.00
2022-11-26T08:04:02.226Z,45.00
2022-11-26T08:05:02.208Z,45.00
2022-11-26T08:06:02.191Z,39.38
2022-11-26T08:07:02.200Z,45.00
2022-11-26T08:08:02.198Z,45.00
2022-11-26T08:09:02.190Z,45.00
2022-11-26T08:10:02.196Z,45.00
2022-11-26T08:11:02.132Z,45.00
2022-11-26T08:12:02.122Z,45.00
2022-11-26T08:13:02.137Z,39.38
2022-11-26T08:14:02.138Z,39.38
2022-11-26T08:15:02.099Z,45.00
2022-11-26T08:16:02.252Z,45.00
2022-11-26T08:17:02.061Z,45.00
2022-11-26T08:18:02.063Z,45.00
2022-11-26T08:19:02.061Z,45.00
2022-11-26T08:20:02.064Z,45.00
2022-11-26T08:21:02.028Z,50.62
2022-11-26T08:22:02.019Z,50.62
2022-11-26T08:23:02.003Z,50.62
2022-11-26T08:24:02.352Z,50.62
2022-11-26T08:25:02.129Z,50.62
2022-11-26T08:26:23.830Z,50.62
2022-11-26T08:27:02.951Z,50.62
2022-11-26T08:28:01.941Z,50.62
2022-11-26T08:29:01.950Z,50.62
2022-11-26T08:30:01.967Z,50.62
2022-11-26T08:31:01.952Z,50.62
2022-11-26T08:32:01.917Z,45.00
2022-11-26T08:33:01.919Z,50.62
2022-11-26T08:34:02.104Z,50.62
2022-11-26T08:35:01.868Z,50.62
2022-11-26T08:36:06.643Z,50.62
2022-11-26T08:37:02.899Z,45.00
2022-11-26T08:38:01.834Z,45.00
2022-11-26T08:39:01.823Z,50.62
2022-11-26T08:40:01.826Z,50.62
2022-11-26T08:41:01.821Z,50.62
2022-11-26T08:42:01.816Z,50.62
2022-11-26T08:43:01.796Z,50.62
2022-11-26T08:44:06.687Z,50.62
2022-11-26T08:45:02.760Z,56.25
2022-11-26T08:46:01.788Z,56.25
2022-11-26T08:47:01.882Z,56.25
2022-11-26T08:48:01.725Z,56.25
2022-11-26T08:49:01.728Z,56.25
2022-11-26T08:50:01.726Z,50.62
2022-11-26T08:51:01.692Z,56.25
2022-11-26T08:52:01.706Z,56.25
2022-11-26T08:53:01.771Z,56.25
2022-11-26T08:54:01.655Z,56.25
2022-11-26T08:55:01.666Z,56.25
2022-11-26T08:56:01.641Z,56.25
2022-11-26T08:57:01.660Z,56.25
2022-11-26T08:58:01.621Z,61.88
2022-11-26T08:59:01.636Z,61.88
2022-11-26T09:00:01.610Z,56.25
2022-11-26T09:01:01.623Z,56.25
2022-11-26T09:02:01.561Z,56.25
2022-11-26T09:03:01.604Z,56.25
2022-11-26T09:04:01.571Z,61.88
2022-11-26T09:05:01.838Z,61.88
2022-11-26T09:06:01.521Z,61.88
2022-11-26T09:07:01.694Z,61.88
2022-11-26T09:08:01.589Z,61.88
2022-11-26T09:09:01.482Z,56.25
2022-11-26T09:10:01.510Z,61.88
2022-11-26T09:11:01.471Z,56.25
2022-11-26T09:12:01.627Z,50.62
2022-11-26T09:13:01.438Z,50.62
2022-11-26T09:14:01.424Z,45.00
2022-11-26T09:15:01.495Z,39.38
2022-11-26T09:16:01.464Z,39.38
2022-11-26T09:17:01.454Z,33.75
2022-11-26T09:18:01.398Z,28.12
2022-11-26T09:19:01.377Z,33.75
2022-11-26T09:20:01.377Z,39.38
2022-11-26T09:21:01.404Z,39.38
2022-11-26T09:22:01.355Z,45.00
2022-11-26T09:23:01.333Z,50.62
2022-11-26T09:24:01.336Z,50.62
2022-11-26T09:25:01.333Z,50.62
2022-11-26T09:26:01.299Z,45.00
2022-11-26T09:27:07.356Z,45.00
2022-11-26T09:28:02.276Z,45.00
2022-11-26T09:29:01.320Z,50.62
2022-11-26T09:30:01.244Z,56.25
2022-11-26T09:31:01.238Z,56.25
2022-11-26T09:32:22.758Z,61.88
2022-11-26T09:33:02.294Z,61.88
2022-11-26T09:34:01.214Z,67.50
2022-11-26T09:35:01.193Z,73.12
2022-11-26T09:36:01.225Z,73.12
2022-11-26T09:37:01.176Z,73.12
2022-11-26T09:38:01.636Z,73.12
2022-11-26T09:39:01.159Z,67.50
2022-11-26T09:40:01.155Z,67.50
2022-11-26T09:41:01.133Z,67.50
2022-11-26T09:42:01.125Z,67.50
2022-11-26T09:43:01.126Z,73.12
2022-11-26T09:44:01.177Z,73.12
2022-11-26T09:45:01.116Z,78.75
2022-11-26T09:46:01.237Z,78.75
2022-11-26T09:47:12.881Z,78.75
2022-11-26T09:48:02.037Z,78.75
2022-11-26T09:49:04.148Z,78.75
2022-11-26T09:50:01.146Z,73.12
2022-11-26T09:51:01.006Z,84.38
2022-11-26T09:52:01.009Z,106.88
2022-11-26T09:53:00.992Z,112.50
2022-11-26T09:54:00.973Z,112.50
2022-11-26T09:55:01.011Z,112.50
2022-11-26T09:56:00.946Z,106.88
2022-11-26T09:57:00.949Z,95.62
2022-11-26T09:58:00.927Z,90.00
2022-11-26T09:59:00.918Z,78.75
2022-11-26T10:00:00.919Z,78.75
2022-11-26T10:01:01.029Z,78.75
2022-11-26T10:02:00.934Z,78.75
2022-11-26T10:03:01.759Z,78.75
2022-11-26T10:04:00.875Z,78.75
2022-11-26T10:05:00.889Z,78.75
2022-11-26T10:06:00.868Z,78.75
2022-11-26T10:07:00.963Z,84.38
2022-11-26T10:08:00.876Z,84.38
2022-11-26T10:09:00.807Z,84.38
2022-11-26T10:10:00.790Z,84.38
2022-11-26T10:11:03.950Z,90.00
2022-11-26T10:12:00.777Z,90.00
2022-11-26T10:13:18.675Z,90.00
2022-11-26T10:14:01.753Z,84.38
2022-11-26T10:15:00.740Z,84.38
2022-11-26T10:16:00.788Z,78.75
2022-11-26T10:17:00.739Z,78.75
2022-11-26T10:18:00.717Z,78.75
2022-11-26T10:19:00.723Z,78.75
2022-11-26T10:20:00.680Z,73.12
2022-11-26T10:21:00.678Z,73.12
2022-11-26T10:22:00.659Z,73.12
2022-11-26T10:23:00.643Z,73.12
2022-11-26T10:24:00.648Z,73.12
2022-11-26T10:25:00.650Z,73.12
2022-11-26T10:26:00.621Z,73.12
2022-11-26T10:27:00.597Z,73.12
2022-11-26T10:28:00.602Z,73.12
2022-11-26T10:29:00.581Z,78.75
2022-11-26T10:30:00.560Z,78.75
2022-11-26T10:31:00.854Z,78.75
2022-11-26T10:32:00.619Z,78.75
2022-11-26T10:33:00.523Z,78.75
2022-11-26T10:34:00.530Z,73.12
2022-11-26T10:35:00.527Z,78.75
2022-11-26T10:36:00.530Z,78.75
2022-11-26T10:37:00.481Z,78.75
2022-11-26T10:38:00.668Z,84.38
2022-11-26T10:39:00.611Z,84.38
2022-11-26T10:40:05.812Z,78.75
2022-11-26T10:41:01.481Z,84.38
2022-11-26T10:42:00.452Z,78.75
2022-11-26T10:43:00.411Z,78.75
2022-11-26T10:44:00.412Z,78.75
2022-11-26T10:45:00.420Z,78.75
2022-11-26T10:46:00.495Z,73.12
2022-11-26T10:47:00.412Z,73.12
2022-11-26T10:48:00.379Z,73.12
2022-11-26T10:49:00.363Z,78.75
2022-11-26T10:50:00.395Z,78.75
2022-11-26T10:51:00.335Z,78.75
2022-11-26T10:52:00.319Z,78.75
2022-11-26T10:53:00.390Z,78.75
2022-11-26T10:54:00.590Z,78.75
2022-11-26T10:55:00.362Z,78.75
2022-11-26T10:56:00.294Z,78.75
2022-11-26T10:57:00.423Z,78.75
2022-11-26T10:58:00.335Z,78.75
2022-11-26T10:59:00.254Z,78.75
2022-11-26T11:00:00.222Z,78.75
2022-11-26T11:01:00.301Z,78.75
2022-11-26T11:02:00.231Z,78.75
2022-11-26T11:03:00.399Z,78.75
2022-11-26T11:04:07.699Z,78.75
2022-11-26T11:05:01.336Z,78.75
2022-11-26T11:06:00.385Z,78.75
2022-11-26T11:07:00.293Z,78.75
2022-11-26T11:08:00.537Z,78.75
2022-11-26T11:09:00.167Z,78.75
2022-11-26T11:10:00.131Z,78.75
2022-11-26T11:11:00.104Z,73.12
2022-11-26T11:12:00.132Z,73.12
2022-11-26T11:13:00.201Z,73.12
2022-11-26T11:14:00.218Z,73.12
2022-11-26T11:15:00.113Z,73.12
2022-11-26T11:16:00.095Z,73.12
2022-11-26T11:17:00.127Z,67.50
2022-11-26T11:18:00.169Z,73.12
2022-11-26T11:19:00.036Z,73.12
2022-11-26T11:20:00.041Z,73.12
2022-11-26T11:21:00.042Z,67.50
2022-11-26T11:21:59.990Z,73.12
2022-11-26T11:23:00.009Z,73.12
2022-11-26T11:24:08.674Z,67.50
2022-11-26T11:25:01.001Z,67.50
2022-11-26T11:25:59.947Z,67.50
2022-11-26T11:26:59.996Z,61.88
2022-11-26T11:27:59.908Z,61.88
2022-11-26T11:28:59.907Z,56.25
2022-11-26T11:29:59.899Z,56.25
2022-11-26T11:30:59.890Z,61.88
2022-11-26T11:31:59.912Z,56.25
2022-11-26T11:32:59.898Z,56.25
2022-11-26T11:33:59.861Z,61.88
2022-11-26T11:34:59.828Z,56.25
2022-11-26T11:35:59.907Z,61.88
2022-11-26T11:36:59.820Z,61.88
2022-11-26T11:37:59.791Z,61.88
2022-11-26T11:38:59.821Z,61.88
2022-11-26T11:39:59.927Z,61.88
2022-11-26T11:40:59.780Z,56.25
2022-11-26T11:42:00.456Z,61.88
2022-11-26T11:42:59.793Z,61.88
2022-11-26T11:43:59.731Z,61.88
2022-11-26T11:44:59.768Z,61.88
2022-11-26T11:45:59.772Z,61.88
2022-11-26T11:46:59.691Z,61.88
2022-11-26T11:47:59.670Z,56.25
2022-11-26T11:48:59.689Z,61.88
2022-11-26T11:49:59.650Z,61.88
2022-11-26T11:51:00.111Z,56.25
2022-11-26T11:51:59.929Z,56.25
2022-11-26T11:52:59.744Z,56.25
2022-11-26T11:53:59.609Z,56.25
2022-11-26T11:54:59.640Z,61.88
2022-11-26T11:56:02.402Z,56.25
2022-11-26T11:56:59.611Z,67.50
2022-11-26T11:57:59.811Z,61.88
2022-11-26T11:58:59.560Z,67.50
2022-11-26T11:59:59.541Z,67.50
2022-11-26T12:00:59.556Z,61.88
2022-11-26T12:01:59.683Z,56.25
2022-11-26T12:02:59.543Z,61.88
2022-11-26T12:03:59.558Z,67.50
2022-11-26T12:04:59.527Z,67.50
2022-11-26T12:05:59.471Z,61.88
2022-11-26T12:06:59.508Z,67.50
2022-11-26T12:07:59.566Z,67.50
2022-11-26T12:08:59.435Z,67.50
2022-11-26T12:09:59.452Z,67.50
2022-11-26T12:10:59.425Z,73.12
2022-11-26T12:11:59.760Z,56.25
2022-11-26T12:12:59.405Z,61.88
2022-11-26T12:13:59.434Z,61.88
2022-11-26T12:14:59.365Z,56.25
2022-11-26T12:15:59.367Z,56.25
2022-11-26T12:16:59.393Z,56.25
2022-11-26T12:17:59.343Z,56.25
2022-11-26T12:18:59.363Z,56.25
2022-11-26T12:19:59.389Z,56.25
2022-11-26T12:20:59.306Z,50.62
2022-11-26T12:21:59.303Z,50.62
2022-11-26T12:22:59.287Z,50.62
2022-11-26T12:23:59.276Z,45.00
2022-11-26T12:24:59.244Z,45.00
2022-11-26T12:25:59.274Z,45.00
2022-11-26T12:26:59.244Z,45.00
2022-11-26T12:27:59.216Z,45.00
2022-11-26T12:28:59.226Z,45.00
2022-11-26T12:29:59.235Z,39.38
2022-11-26T12:30:59.184Z,39.38
2022-11-26T12:31:59.254Z,39.38
2022-11-26T12:32:59.167Z,39.38
2022-11-26T12:34:00.898Z,39.38
2022-11-26T12:35:00.169Z,39.38
2022-11-26T12:35:59.166Z,39.38
2022-11-26T12:36:59.120Z,39.38
2022-11-26T12:37:59.109Z,39.38
2022-11-26T12:38:59.106Z,39.38
2022-11-26T12:39:59.138Z,39.38
2022-11-26T12:40:59.095Z,39.38
2022-11-26T12:41:59.108Z,39.38
2022-11-26T12:42:59.058Z,39.38
2022-11-26T12:43:59.046Z,39.38
2022-11-26T12:44:59.038Z,45.00
2022-11-26T12:45:59.127Z,39.38
2022-11-26T12:46:59.008Z,39.38
2022-11-26T12:47:59.027Z,33.75
2022-11-26T12:48:58.982Z,33.75
2022-11-26T12:49:58.991Z,33.75
2022-11-26T12:50:58.968Z,33.75
2022-11-26T12:51:58.963Z,33.75
2022-11-26T12:52:58.943Z,33.75
2022-11-26T12:53:59.028Z,28.12
2022-11-26T12:54:58.930Z,28.12
2022-11-26T12:55:58.913Z,33.75
2022-11-26T12:56:58.901Z,33.75
2022-11-26T12:57:58.893Z,33.75
2022-11-26T12:58:58.890Z,39.38
2022-11-26T12:59:58.878Z,33.75
2022-11-26T13:00:58.873Z,33.75
2022-11-26T13:01:58.947Z,33.75
2022-11-26T13:02:58.847Z,33.75
2022-11-26T13:04:21.533Z,33.75
2022-11-26T13:04:59.833Z,33.75
2022-11-26T13:05:58.804Z,28.12